Time;durP1;ratioP1;P1;durP2;ratioP2;P2;SDS_P1;SDS_P2;PMS_P1;PMS_P2;Temp;Humidity;BMP_temperature;BMP_pressure;BME280_temperature;BME280_humidity;BME280_pressure;Samples;Min_cycle;Max_cycle;Signal;HPM_P1;HPM_P2
2022/01/15 00:01:59;;;;;;;;;;;13.50;99.90;;;;;;5047160;28;19921;-66
2022/01/15 00:04:24;;;;;;;;;;;13.60;99.90;;;;;;5047647;28;19921;-66
2022/01/15 00:06:50;;;;;;;;;;;13.40;99.90;;;;;;5052816;28;19928;-68
2022/01/15 00:09:16;;;;;;;;;;;13.50;99.90;;;;;;5042052;28;19966;-67
2022/01/15 00:11:44;;;;;;;;;;;13.50;99.90;;;;;;5063961;28;19916;-66
2022/01/15 00:14:21;;;;;;;;;;;13.30;99.90;;;;;;5031947;28;19928;-61
2022/01/15 00:16:56;;;;;;;;;;;13.40;99.90;;;;;;5049092;28;20285;-61
2022/01/15 00:19:34;;;;;;;;;;;13.60;99.90;;;;;;5051556;28;19930;-65
2022/01/15 00:21:59;;;;;;;;;;;13.50;99.90;;;;;;5046656;28;19950;-61
2022/01/15 00:24:25;;;;;;;;;;;13.40;99.90;;;;;;5042194;28;20377;-67
2022/01/15 00:26:51;;;;;;;;;;;13.40;99.90;;;;;;5041532;28;20313;-66
2022/01/15 00:29:16;;;;;;;;;;;13.40;99.90;;;;;;5044825;28;20422;-66
2022/01/15 00:31:42;;;;;;;;;;;13.30;99.90;;;;;;5040087;28;20306;-67
2022/01/15 00:34:08;;;;;;;;;;;13.30;99.90;;;;;;5048418;28;19917;-67
2022/01/15 00:36:33;;;;;;;;;;;13.30;99.90;;;;;;5048390;28;19968;-67
2022/01/15 00:38:59;;;;;;;;;;;13.50;99.90;;;;;;5035790;28;19928;-67
2022/01/15 00:41:26;;;;;;;;;;;13.40;99.90;;;;;;5050877;28;19931;-66
2022/01/15 00:43:52;;;;;;;;;;;13.30;99.90;;;;;;5030018;28;20373;-67
2022/01/15 00:46:17;;;;;;;;;;;13.30;99.90;;;;;;5054578;28;20016;-68
2022/01/15 00:48:43;;;;;;;;;;;13.50;99.90;;;;;;5032599;28;19921;-67
2022/01/15 00:51:09;;;;;;;;;;;13.30;99.90;;;;;;5042973;28;19982;-66
2022/01/15 00:53:34;;;;;;;;;;;13.40;99.90;;;;;;5044750;28;20358;-66
2022/01/15 00:56:00;;;;;;;;;;;13.30;99.90;;;;;;5043185;28;19921;-67
2022/01/15 00:58:25;;;;;;;;;;;13.40;99.90;;;;;;5047103;28;19921;-67
2022/01/15 01:00:51;;;;;;;;;;;13.30;99.90;;;;;;5043083;28;19920;-61
2022/01/15 01:03:17;;;;;;;;;;;13.30;99.90;;;;;;5049723;28;19920;-61
2022/01/15 01:05:42;;;;;;;;;;;13.40;99.90;;;;;;5049402;28;19927;-63
2022/01/15 01:08:08;;;;;;;;;;;13.50;99.90;;;;;;5051873;28;19927;-62
2022/01/15 01:24:13;;;;;;;;;;;13.30;99.90;;;;;;4994046;28;19961;-60
2022/01/15 01:26:52;;;;;;;;;;;13.50;99.90;;;;;;4994680;28;20454;-60
2022/01/15 01:31:59;;;;;;;;;;;13.40;99.90;;;;;;4994228;28;20062;-61
2022/01/15 01:34:27;;;;;;;;;;;13.30;99.90;;;;;;4993439;28;19933;-62
2022/01/15 01:37:04;;;;;;;;;;;;;;;;;;4983503;28;19918;-63
2022/01/15 01:39:43;;;;;;;;;;;;;;;;;;4990379;28;19975;-62
2022/01/15 01:45:04;;;;;;;;;;;13.20;99.90;;;;;;4984447;28;19925;-60
2022/01/15 01:47:39;;;;;;;;;;;13.60;99.90;;;;;;4994251;28;20017;-62
2022/01/15 01:50:15;;;;;;;;;;;13.30;99.90;;;;;;4977679;28;20016;-61
2022/01/15 01:52:41;;;;;;;;;;;13.40;99.90;;;;;;5017330;28;19921;-61
2022/01/15 01:55:07;;;;;;;;;;;13.30;99.90;;;;;;5040250;28;19928;-61
2022/01/15 01:57:33;;;;;;;;;;;13.50;99.90;;;;;;5052234;28;19920;-61
2022/01/15 01:59:59;;;;;;;;;;;13.50;99.90;;;;;;5036649;28;19921;-61
2022/01/15 02:02:24;;;;;;;;;;;13.60;99.90;;;;;;5037549;28;19932;-62
2022/01/15 02:04:50;;;;;;;;;;;13.30;99.90;;;;;;5051390;28;20279;-61
2022/01/15 02:07:16;;;;;;;;;;;;;;;;;;5037069;28;19975;-63
2022/01/15 02:09:42;;;;;;;;;;;13.20;99.90;;;;;;5043203;28;19921;-62
2022/01/15 02:12:08;;;;;;;;;;;13.50;99.90;;;;;;5037057;28;19928;-62
2022/01/15 02:14:33;;;;;;;;;;;13.40;99.90;;;;;;5046669;28;19920;-62
2022/01/15 02:16:59;;;;;;;;;;;13.40;99.90;;;;;;5055397;28;20418;-62
2022/01/15 02:19:34;;;;;;;;;;;13.00;99.90;;;;;;5038403;28;19968;-62
2022/01/15 02:24:44;;;;;;;;;;;;;;;;;;5052829;28;20047;-67
2022/01/15 02:27:10;;;;;;;;;;;13.70;99.90;;;;;;5053074;28;19927;-67
2022/01/15 02:29:36;;;;;;;;;;;13.40;99.90;;;;;;5052909;28;20294;-62
2022/01/15 02:32:02;;;;;;;;;;;13.60;99.90;;;;;;5054850;28;19963;-62
2022/01/15 02:34:28;;;;;;;;;;;;;;;;;;5052650;28;19927;-67
2022/01/15 02:36:53;;;;;;;;;;;13.50;99.90;;;;;;5054713;28;19921;-68
2022/01/15 02:39:19;;;;;;;;;;;;;;;;;;5037743;28;19948;-67
2022/01/15 02:41:45;;;;;;;;;;;13.30;99.90;;;;;;5054212;28;20406;-68
2022/01/15 02:44:15;;;;;;;;;;;13.40;99.80;;;;;;5043195;28;19923;-66
2022/01/15 02:49:16;;;;;;;;;;;13.50;99.90;;;;;;5052532;28;20298;-67
2022/01/15 02:51:42;;;;;;;;;;;13.20;99.90;;;;;;5046048;28;19920;-68
2022/01/15 02:54:07;;;;;;;;;;;13.10;99.90;;;;;;5051086;28;19967;-67
2022/01/15 02:56:36;;;;;;;;;;;13.50;99.90;;;;;;5052895;28;19920;-68
2022/01/15 02:59:03;;;;;;;;;;;13.40;99.90;;;;;;5048647;28;19921;-67
2022/01/15 03:01:28;;;;;;;;;;;13.40;99.90;;;;;;5050781;28;19928;-60
2022/01/15 03:03:54;;;;;;;;;;;13.50;99.90;;;;;;5050960;28;19924;-61
2022/01/15 03:06:20;;;;;;;;;;;13.40;99.90;;;;;;5044129;28;19921;-63
2022/01/15 03:08:46;;;;;;;;;;;13.60;99.90;;;;;;5046634;28;20327;-64
2022/01/15 03:11:12;;;;;;;;;;;13.30;99.90;;;;;;5044998;28;20022;-61
2022/01/15 03:13:38;;;;;;;;;;;13.30;99.90;;;;;;5044970;28;19928;-62
2022/01/15 03:16:04;;;;;;;;;;;13.30;99.90;;;;;;5056430;28;20271;-62
2022/01/15 03:18:30;;;;;;;;;;;13.50;99.90;;;;;;5040709;28;19920;-62
2022/01/15 03:20:56;;;;;;;;;;;;;;;;;;5037417;28;19921;-63
2022/01/15 03:23:21;;;;;;;;;;;13.60;99.90;;;;;;5044824;28;20345;-61
2022/01/15 03:25:47;;;;;;;;;;;13.30;99.90;;;;;;5034114;28;19956;-63
2022/01/15 03:28:13;;;;;;;;;;;13.30;99.90;;;;;;5034465;28;19928;-64
2022/01/15 03:30:38;;;;;;;;;;;13.30;99.90;;;;;;5034257;28;19964;-63
2022/01/15 03:33:04;;;;;;;;;;;13.30;99.90;;;;;;5035452;28;19925;-63
2022/01/15 03:35:30;;;;;;;;;;;13.40;99.90;;;;;;5039606;28;19967;-62
2022/01/15 03:37:55;;;;;;;;;;;13.50;99.90;;;;;;5049814;28;19927;-62
2022/01/15 03:40:21;;;;;;;;;;;13.20;99.90;;;;;;5040240;28;19921;-63
2022/01/15 03:42:47;;;;;;;;;;;13.40;99.90;;;;;;5052236;28;19917;-61
2022/01/15 03:45:12;;;;;;;;;;;13.40;99.90;;;;;;5034028;28;19921;-62
2022/01/15 03:47:38;;;;;;;;;;;13.20;99.90;;;;;;5051516;28;20058;-62
2022/01/15 03:50:04;;;;;;;;;;;13.30;99.90;;;;;;5052316;28;19921;-63
2022/01/15 03:52:30;;;;;;;;;;;13.40;99.90;;;;;;5047917;28;19920;-68
2022/01/15 03:54:56;;;;;;;;;;;13.40;99.90;;;;;;5050309;28;19920;-67
2022/01/15 03:57:22;;;;;;;;;;;13.40;99.90;;;;;;5040143;28;19921;-67
2022/01/15 03:59:47;;;;;;;;;;;13.30;99.90;;;;;;5053422;28;19948;-68
2022/01/15 04:02:13;;;;;;;;;;;;;;;;;;5042529;28;19921;-68
2022/01/15 04:04:39;;;;;;;;;;;13.20;99.90;;;;;;5052230;28;20020;-67
2022/01/15 04:07:05;;;;;;;;;;;13.30;99.90;;;;;;5050878;28;20020;-61
2022/01/15 04:09:31;;;;;;;;;;;13.30;99.90;;;;;;5066525;28;19927;-62
2022/01/15 04:11:56;;;;;;;;;;;13.60;99.90;;;;;;5045921;28;19924;-63
2022/01/15 04:14:22;;;;;;;;;;;13.10;99.90;;;;;;5052948;28;20366;-63
2022/01/15 04:16:47;;;;;;;;;;;13.20;99.90;;;;;;5050587;28;19921;-67
2022/01/15 04:19:13;;;;;;;;;;;13.30;99.90;;;;;;5046819;28;20396;-63
2022/01/15 04:21:39;;;;;;;;;;;;;;;;;;5046379;28;19927;-62
2022/01/15 04:24:06;;;;;;;;;;;13.40;99.90;;;;;;5048117;28;19947;-62
2022/01/15 04:26:32;;;;;;;;;;;13.40;99.90;;;;;;5066217;28;19924;-64
2022/01/15 04:29:04;;;;;;;;;;;13.10;99.90;;;;;;5027314;28;20003;-66
2022/01/15 04:31:36;;;;;;;;;;;13.10;99.90;;;;;;5052755;28;19921;-66
2022/01/15 04:34:02;;;;;;;;;;;;;;;;;;5051936;28;19927;-67
2022/01/15 04:36:28;;;;;;;;;;;13.50;99.90;;;;;;5066474;28;20002;-67
2022/01/15 04:38:53;;;;;;;;;;;13.30;99.90;;;;;;5040722;28;19979;-67
2022/01/15 04:41:19;;;;;;;;;;;13.50;99.90;;;;;;5052639;28;19921;-66
2022/01/15 04:43:44;;;;;;;;;;;13.10;99.60;;;;;;5049912;28;19916;-64
2022/01/15 04:46:10;;;;;;;;;;;13.20;99.90;;;;;;5049282;28;20019;-65
2022/01/15 04:48:35;;;;;;;;;;;13.40;99.90;;;;;;5042861;28;20016;-63
2022/01/15 04:51:01;;;;;;;;;;;13.30;99.90;;;;;;5051197;28;20393;-65
2022/01/15 04:53:27;;;;;;;;;;;13.50;99.90;;;;;;5039298;28;19929;-67
2022/01/15 04:55:52;;;;;;;;;;;13.50;99.90;;;;;;5055282;28;19981;-67
2022/01/15 04:58:18;;;;;;;;;;;13.30;99.80;;;;;;5047454;28;20278;-67
2022/01/15 05:00:44;;;;;;;;;;;13.50;99.80;;;;;;5048540;28;19931;-64
2022/01/15 05:03:09;;;;;;;;;;;13.40;99.80;;;;;;5053765;28;19924;-67
2022/01/15 05:05:35;;;;;;;;;;;13.10;99.80;;;;;;5056824;28;19920;-66
2022/01/15 05:08:02;;;;;;;;;;;13.40;99.80;;;;;;5047541;28;19921;-66
2022/01/15 05:10:28;;;;;;;;;;;13.30;99.70;;;;;;5047110;28;20282;-66
2022/01/15 05:12:56;;;;;;;;;;;13.30;99.70;;;;;;5056125;28;19921;-64
2022/01/15 05:15:22;;;;;;;;;;;;;;;;;;5056167;28;19960;-66
2022/01/15 05:17:48;;;;;;;;;;;13.40;99.80;;;;;;5049536;28;19968;-66
2022/01/15 05:20:17;;;;;;;;;;;13.50;99.60;;;;;;5050952;28;20015;-65
2022/01/15 05:22:43;;;;;;;;;;;13.40;99.50;;;;;;5022483;28;19921;-68
2022/01/15 05:25:09;;;;;;;;;;;13.40;99.30;;;;;;5053377;28;19935;-71
2022/01/15 05:27:36;;;;;;;;;;;13.60;99.30;;;;;;5054475;28;19928;-67
2022/01/15 05:30:04;;;;;;;;;;;13.70;99.10;;;;;;5045830;28;19925;-65
2022/01/15 05:32:30;;;;;;;;;;;13.20;99.00;;;;;;5054494;28;19966;-67
2022/01/15 05:34:57;;;;;;;;;;;13.50;99.00;;;;;;5055480;28;19999;-67
2022/01/15 05:37:23;;;;;;;;;;;13.40;98.80;;;;;;5055130;28;19921;-66
2022/01/15 05:39:49;;;;;;;;;;;13.50;98.80;;;;;;5046216;28;20290;-69
2022/01/15 05:42:14;;;;;;;;;;;13.60;98.80;;;;;;5055741;28;19921;-69
2022/01/15 05:44:40;;;;;;;;;;;;;;;;;;5055219;28;19921;-68
2022/01/15 05:47:10;;;;;;;;;;;13.50;98.70;;;;;;5055946;28;19972;-69
2022/01/15 05:49:36;;;;;;;;;;;13.40;98.60;;;;;;5045148;28;20301;-70
2022/01/15 05:52:02;;;;;;;;;;;;;;;;;;5046432;28;19917;-66
2022/01/15 05:54:27;;;;;;;;;;;13.20;98.50;;;;;;5024532;28;19920;-69
2022/01/15 05:56:53;;;;;;;;;;;13.10;98.50;;;;;;5019195;28;19921;-68
2022/01/15 05:59:19;;;;;;;;;;;;;;;;;;5048618;28;19968;-70
2022/01/15 06:01:45;;;;;;;;;;;13.20;98.40;;;;;;5055737;28;19974;-68
2022/01/15 06:04:10;;;;;;;;;;;13.30;98.40;;;;;;5055420;28;19927;-66
2022/01/15 06:06:36;;;;;;;;;;;13.60;98.30;;;;;;5056581;28;19995;-62
2022/01/15 06:09:03;;;;;;;;;;;;;;;;;;5044646;28;19947;-66
2022/01/15 06:11:28;;;;;;;;;;;13.30;98.30;;;;;;5054800;28;19921;-69
2022/01/15 06:13:56;;;;;;;;;;;13.30;98.30;;;;;;5037747;28;19932;-67
2022/01/15 06:16:22;;;;;;;;;;;13.40;98.20;;;;;;5045677;28;19921;-68
2022/01/15 06:18:48;;;;;;;;;;;13.20;98.10;;;;;;5017369;28;19921;-68
2022/01/15 06:21:13;;;;;;;;;;;13.20;98.20;;;;;;5035446;28;19968;-69
2022/01/15 06:23:39;;;;;;;;;;;13.20;98.10;;;;;;5023857;28;19958;-70
2022/01/15 06:26:05;;;;;;;;;;;13.50;97.90;;;;;;5057624;28;20374;-63
2022/01/15 06:28:30;;;;;;;;;;;13.40;98.10;;;;;;5054914;28;20351;-71
2022/01/15 06:30:56;;;;;;;;;;;12.90;97.80;;;;;;5045867;28;20300;-70
2022/01/15 06:33:22;;;;;;;;;;;13.10;98.00;;;;;;5054882;28;20305;-71
2022/01/15 06:35:47;;;;;;;;;;;13.20;98.00;;;;;;5036041;28;19928;-70
2022/01/15 06:38:13;;;;;;;;;;;13.20;98.10;;;;;;5046238;28;19969;-64
2022/01/15 06:40:38;;;;;;;;;;;13.20;98.00;;;;;;5044622;28;19991;-64
2022/01/15 06:43:06;;;;;;;;;;;12.70;97.90;;;;;;5036400;28;20362;-64
2022/01/15 06:45:31;;;;;;;;;;;12.90;97.90;;;;;;5054765;28;19922;-65
2022/01/15 06:47:57;;;;;;;;;;;;;;;;;;5048270;28;19999;-62
2022/01/15 06:50:24;;;;;;;;;;;;;;;;;;5038219;28;19928;-62
2022/01/15 06:52:50;;;;;;;;;;;12.90;97.90;;;;;;5048889;28;19975;-61
2022/01/15 06:55:16;;;;;;;;;;;12.70;98.00;;;;;;5055376;28;20350;-60
2022/01/15 06:57:42;;;;;;;;;;;13.00;98.10;;;;;;5054154;28;20063;-65
2022/01/15 07:00:08;;;;;;;;;;;12.80;98.10;;;;;;5053182;28;20003;-61
2022/01/15 07:02:33;;;;;;;;;;;12.80;98.10;;;;;;5034500;28;19928;-60
2022/01/15 07:04:59;;;;;;;;;;;13.00;97.90;;;;;;5035032;28;19921;-62
2022/01/15 07:07:25;;;;;;;;;;;13.00;98.10;;;;;;5038474;28;20290;-60
2022/01/15 07:09:50;;;;;;;;;;;12.60;98.10;;;;;;5036818;28;19975;-60
2022/01/15 07:12:16;;;;;;;;;;;12.70;98.10;;;;;;5054199;28;20366;-61
2022/01/15 07:14:41;;;;;;;;;;;13.10;98.30;;;;;;5054643;28;19927;-66
2022/01/15 07:17:09;;;;;;;;;;;;;;;;;;5052889;28;19927;-65
2022/01/15 07:19:34;;;;;;;;;;;13.10;97.90;;;;;;5034363;28;19924;-63
2022/01/15 07:22:00;;;;;;;;;;;12.90;98.20;;;;;;5034451;28;19921;-67
2022/01/15 07:24:25;;;;;;;;;;;13.10;98.30;;;;;;5034430;28;19917;-66
2022/01/15 07:26:51;;;;;;;;;;;12.90;98.20;;;;;;5033784;28;19928;-66
2022/01/15 07:29:17;;;;;;;;;;;12.80;98.20;;;;;;5034351;28;19921;-66
2022/01/15 07:31:44;;;;;;;;;;;12.70;98.20;;;;;;5033957;28;19921;-67
2022/01/15 07:34:10;;;;;;;;;;;12.80;98.20;;;;;;5035079;28;19943;-66
2022/01/15 07:36:35;;;;;;;;;;;13.00;98.30;;;;;;5033869;28;19921;-66
2022/01/15 07:39:01;;;;;;;;;;;12.70;98.20;;;;;;5034096;28;19921;-66
2022/01/15 07:41:27;;;;;;;;;;;13.00;98.30;;;;;;5034192;28;19921;-66
2022/01/15 07:43:52;;;;;;;;;;;12.80;98.30;;;;;;5033795;28;19971;-66
2022/01/15 07:46:18;;;;;;;;;;;12.90;98.30;;;;;;5034111;28;19921;-66
2022/01/15 07:48:43;;;;;;;;;;;12.90;98.30;;;;;;5044255;28;20007;-66
2022/01/15 07:51:09;;;;;;;;;;;12.90;98.20;;;;;;5051706;28;20014;-66
2022/01/15 07:53:35;;;;;;;;;;;12.90;98.30;;;;;;5034036;28;19984;-65
2022/01/15 07:56:01;;;;;;;;;;;;;;;;;;5033522;28;20260;-66
2022/01/15 07:58:26;;;;;;;;;;;13.00;98.40;;;;;;5033885;28;19921;-65
2022/01/15 08:00:52;;;;;;;;;;;12.80;98.30;;;;;;5033627;28;20295;-66
2022/01/15 08:03:18;;;;;;;;;;;13.00;98.30;;;;;;5033875;28;19927;-67
2022/01/15 08:05:44;;;;;;;;;;;12.90;98.30;;;;;;5033549;28;20054;-66
2022/01/15 08:08:09;;;;;;;;;;;12.90;98.30;;;;;;5042690;28;19920;-66
2022/01/15 08:10:35;;;;;;;;;;;13.10;98.40;;;;;;5033825;28;19921;-66
2022/01/15 08:13:01;;;;;;;;;;;13.20;98.40;;;;;;5033846;28;19920;-66
2022/01/15 08:15:27;;;;;;;;;;;13.10;98.40;;;;;;5034305;28;19928;-66
2022/01/15 08:17:53;;;;;;;;;;;13.10;98.40;;;;;;5033438;28;19921;-66
2022/01/15 08:20:19;;;;;;;;;;;13.00;98.30;;;;;;5037133;28;19925;-66
2022/01/15 08:22:47;;;;;;;;;;;13.00;98.30;;;;;;5037452;28;19928;-65
2022/01/15 08:25:13;;;;;;;;;;;12.80;98.20;;;;;;5038049;28;20334;-65
2022/01/15 08:27:39;;;;;;;;;;;12.80;98.30;;;;;;5037390;28;19921;-66
2022/01/15 08:30:05;;;;;;;;;;;13.20;98.40;;;;;;5037713;28;19920;-66
2022/01/15 08:32:31;;;;;;;;;;;;;;;;;;5019379;28;19917;-66
2022/01/15 08:34:57;;;;;;;;;;;12.90;98.30;;;;;;5037564;28;19927;-65
2022/01/15 08:37:23;;;;;;;;;;;;;;;;;;5038053;28;20019;-66
2022/01/15 08:39:49;;;;;;;;;;;12.90;98.40;;;;;;5037364;28;19951;-65
2022/01/15 08:42:15;;;;;;;;;;;13.00;98.40;;;;;;5037317;28;20289;-66
2022/01/15 08:44:43;;;;;;;;;;;13.10;98.40;;;;;;5037422;28;19921;-67
2022/01/15 08:47:09;;;;;;;;;;;13.00;98.30;;;;;;5037046;28;20383;-66
2022/01/15 08:49:35;;;;;;;;;;;;;;;;;;5054636;28;19928;-65
2022/01/15 08:52:00;;;;;;;;;;;13.20;98.50;;;;;;5056855;28;20048;-66
2022/01/15 08:54:26;;;;;;;;;;;12.90;98.40;;;;;;5056840;28;19975;-66
2022/01/15 08:56:52;;;;;;;;;;;12.80;98.40;;;;;;5056650;28;19956;-66
2022/01/15 08:59:18;;;;;;;;;;;13.30;98.50;;;;;;5053864;28;19921;-65
2022/01/15 09:01:44;;;;;;;;;;;13.10;98.40;;;;;;5037101;28;19925;-65
2022/01/15 09:04:10;;;;;;;;;;;13.30;98.50;;;;;;5036674;28;19963;-67
2022/01/15 09:06:39;;;;;;;;;;;13.30;98.50;;;;;;5019301;28;19928;-66
2022/01/15 09:09:05;;;;;;;;;;;;;;;;;;5036943;28;19924;-66
2022/01/15 09:11:31;;;;;;;;;;;13.00;98.30;;;;;;5036538;28;19979;-66
2022/01/15 09:13:56;;;;;;;;;;;13.30;98.40;;;;;;5036889;28;19921;-66
2022/01/15 09:16:23;;;;;;;;;;;13.20;98.30;;;;;;5036998;28;19921;-68
2022/01/15 09:18:49;;;;;;;;;;;13.00;98.30;;;;;;5036695;28;20007;-67
2022/01/15 09:21:15;;;;;;;;;;;13.10;98.30;;;;;;5036700;28;19975;-65
2022/01/15 09:23:41;;;;;;;;;;;13.00;98.30;;;;;;5018684;28;19964;-66
2022/01/15 09:26:08;;;;;;;;;;;13.30;98.30;;;;;;5036214;28;19964;-66
2022/01/15 09:31:18;;;;;;;;;;;13.30;98.30;;;;;;5056092;28;20412;-66
2022/01/15 09:33:44;;;;;;;;;;;13.30;98.30;;;;;;5054271;28;19948;-66
2022/01/15 09:36:09;;;;;;;;;;;13.30;98.20;;;;;;5036123;28;20371;-65
2022/01/15 09:38:35;;;;;;;;;;;13.40;98.30;;;;;;5036280;28;20008;-67
2022/01/15 09:41:01;;;;;;;;;;;13.30;98.20;;;;;;5036044;28;19968;-66
2022/01/15 09:43:26;;;;;;;;;;;13.20;98.20;;;;;;5019264;28;19917;-66
2022/01/15 09:45:52;;;;;;;;;;;13.30;98.20;;;;;;5018321;28;19928;-66
2022/01/15 09:48:18;;;;;;;;;;;13.30;98.20;;;;;;5042734;28;19921;-66
2022/01/15 09:50:44;;;;;;;;;;;13.40;98.20;;;;;;5021688;28;19921;-65
2022/01/15 09:53:10;;;;;;;;;;;13.10;98.10;;;;;;5038232;28;19943;-61
2022/01/15 09:55:36;;;;;;;;;;;;;;;;;;5056197;28;20051;-66
2022/01/15 09:58:02;;;;;;;;;;;13.30;98.10;;;;;;5055861;28;19924;-67
2022/01/15 10:00:28;;;;;;;;;;;13.20;98.10;;;;;;5055841;28;20303;-61
2022/01/15 10:02:54;;;;;;;;;;;13.50;98.10;;;;;;5055509;28;19951;-61
2022/01/15 10:05:20;;;;;;;;;;;13.50;98.10;;;;;;5055725;28;19921;-66
2022/01/15 10:08:04;;;;;;;;;;;13.20;98.00;;;;;;5054835;28;19921;-66
2022/01/15 10:10:31;;;;;;;;;;;13.50;98.00;;;;;;5055432;28;19924;-66
2022/01/15 10:13:09;;;;;;;;;;;13.50;98.00;;;;;;5055320;28;19921;-66
2022/01/15 10:15:35;;;;;;;;;;;13.30;97.90;;;;;;5055618;28;20003;-66
2022/01/15 10:18:01;;;;;;;;;;;13.30;97.80;;;;;;5055442;28;20347;-66
2022/01/15 10:20:27;;;;;;;;;;;13.50;97.60;;;;;;5037310;28;20306;-65
2022/01/15 10:22:53;;;;;;;;;;;13.40;97.80;;;;;;5037660;28;19921;-65
2022/01/15 10:25:21;;;;;;;;;;;13.30;97.80;;;;;;5054258;28;19952;-66
2022/01/15 10:28:04;;;;;;;;;;;13.20;97.80;;;;;;5037769;28;19921;-66
2022/01/15 10:30:30;;;;;;;;;;;13.20;97.80;;;;;;5037853;28;19967;-66
2022/01/15 10:32:57;;;;;;;;;;;13.30;97.80;;;;;;5055318;28;19920;-66
2022/01/15 10:35:24;;;;;;;;;;;13.30;97.80;;;;;;5036892;28;19921;-65
2022/01/15 10:37:54;;;;;;;;;;;13.40;97.80;;;;;;5054773;28;19920;-67
2022/01/15 10:40:22;;;;;;;;;;;13.00;97.70;;;;;;5055155;28;19924;-62
2022/01/15 10:42:58;;;;;;;;;;;13.30;97.70;;;;;;5035436;28;19925;-66
2022/01/15 10:45:24;;;;;;;;;;;13.20;97.40;;;;;;5055053;28;20313;-68
2022/01/15 10:47:50;;;;;;;;;;;13.40;97.80;;;;;;5054879;28;20300;-66
2022/01/15 10:50:29;;;;;;;;;;;13.30;97.70;;;;;;5055013;28;20305;-66
2022/01/15 10:52:55;;;;;;;;;;;13.40;97.80;;;;;;5037699;28;19955;-66
2022/01/15 10:55:25;;;;;;;;;;;13.70;97.80;;;;;;5054576;28;19927;-66
2022/01/15 10:57:54;;;;;;;;;;;13.30;97.50;;;;;;5054611;28;19956;-66
2022/01/15 11:00:20;;;;;;;;;;;13.30;97.70;;;;;;5054268;28;19928;-67
2022/01/15 11:02:49;;;;;;;;;;;13.20;97.60;;;;;;5054713;28;19917;-64
2022/01/15 11:05:21;;;;;;;;;;;13.50;97.70;;;;;;5054564;28;19964;-65
2022/01/15 11:07:47;;;;;;;;;;;13.40;97.70;;;;;;5054636;28;19921;-66
2022/01/15 11:10:12;;;;;;;;;;;13.40;97.70;;;;;;5054530;28;19921;-64
2022/01/15 11:12:38;;;;;;;;;;;13.50;97.70;;;;;;5054514;28;19999;-66
2022/01/15 11:15:05;;;;;;;;;;;;;;;;;;5035676;28;20382;-65
2022/01/15 11:17:30;;;;;;;;;;;13.50;97.70;;;;;;5054467;28;19927;-66
2022/01/15 11:19:56;;;;;;;;;;;13.50;97.40;;;;;;5019544;28;20019;-66
2022/01/15 11:22:22;;;;;;;;;;;13.50;97.60;;;;;;5036284;28;19921;-66
2022/01/15 11:24:48;;;;;;;;;;;13.30;97.50;;;;;;5054014;28;19920;-65
2022/01/15 11:27:14;;;;;;;;;;;13.40;97.50;;;;;;5053668;28;19920;-61
2022/01/15 11:29:41;;;;;;;;;;;13.30;97.50;;;;;;5036589;28;19966;-66
2022/01/15 11:32:06;;;;;;;;;;;13.60;97.60;;;;;;5053129;28;19920;-66
2022/01/15 11:34:32;;;;;;;;;;;13.30;97.50;;;;;;5053862;28;19920;-66
2022/01/15 11:36:58;;;;;;;;;;;13.50;97.50;;;;;;5054153;28;20004;-66
2022/01/15 11:39:30;;;;;;;;;;;13.30;97.50;;;;;;5054046;28;20251;-63
2022/01/15 11:41:56;;;;;;;;;;;13.60;97.50;;;;;;5054108;28;19921;-66
2022/01/15 11:44:27;;;;;;;;;;;13.40;97.50;;;;;;5054078;28;19924;-65
2022/01/15 11:46:54;;;;;;;;;;;13.50;97.50;;;;;;5053965;28;20352;-65
2022/01/15 11:49:23;;;;;;;;;;;13.50;97.40;;;;;;5021523;28;19921;-66
2022/01/15 11:51:49;;;;;;;;;;;13.50;97.40;;;;;;5034065;28;20294;-66
2022/01/15 11:54:15;;;;;;;;;;;13.60;97.40;;;;;;5033727;28;19921;-66
2022/01/15 11:56:44;;;;;;;;;;;13.40;97.30;;;;;;5033880;28;20012;-61
2022/01/15 11:59:30;;;;;;;;;;;13.50;97.40;;;;;;5033924;28;19927;-67
2022/01/15 12:01:56;;;;;;;;;;;13.20;97.30;;;;;;5019899;28;19928;-66
2022/01/15 12:04:26;;;;;;;;;;;13.40;97.10;;;;;;5033970;28;19921;-62
2022/01/15 12:07:01;;;;;;;;;;;13.40;97.30;;;;;;5034410;28;20429;-66
2022/01/15 12:09:35;;;;;;;;;;;13.40;97.40;;;;;;5033613;28;19956;-62
2022/01/15 12:12:01;;;;;;;;;;;13.50;97.40;;;;;;5033576;28;19921;-64
2022/01/15 12:14:45;;;;;;;;;;;13.60;97.40;;;;;;5033566;28;20433;-66
2022/01/15 12:17:24;;;;;;;;;;;13.20;97.30;;;;;;5033811;28;20020;-66
2022/01/15 12:19:50;;;;;;;;;;;13.40;97.30;;;;;;5016226;28;19921;-66
2022/01/15 12:22:34;;;;;;;;;;;13.40;97.30;;;;;;5033728;28;19921;-66
2022/01/15 12:25:03;;;;;;;;;;;13.30;97.30;;;;;;5016648;28;19921;-60
2022/01/15 12:27:29;;;;;;;;;;;13.10;97.20;;;;;;5033235;28;19924;-66
2022/01/15 12:30:14;;;;;;;;;;;13.20;97.30;;;;;;5033457;28;19921;-61
2022/01/15 12:32:41;;;;;;;;;;;13.40;97.30;;;;;;5033694;28;19921;-66
2022/01/15 12:35:14;;;;;;;;;;;;;;;;;;5033324;28;19932;-63
2022/01/15 12:37:52;;;;;;;;;;;13.30;97.30;;;;;;5042441;28;19924;-66
2022/01/15 12:40:20;;;;;;;;;;;13.30;97.30;;;;;;5057956;28;19925;-62
2022/01/15 12:42:53;;;;;;;;;;;13.30;97.20;;;;;;5033281;28;19928;-66
2022/01/15 12:45:19;;;;;;;;;;;13.40;97.30;;;;;;5033622;28;19921;-66
2022/01/15 12:47:46;;;;;;;;;;;13.20;97.20;;;;;;5035772;28;19928;-66
2022/01/15 12:50:12;;;;;;;;;;;13.50;97.30;;;;;;5053430;28;20275;-66
2022/01/15 12:52:38;;;;;;;;;;;13.50;97.30;;;;;;5035240;28;19927;-60
2022/01/15 12:55:03;;;;;;;;;;;13.30;97.20;;;;;;5053887;28;19925;-61
2022/01/15 12:57:41;;;;;;;;;;;13.40;97.30;;;;;;5048494;28;19928;-66
2022/01/15 13:00:10;;;;;;;;;;;13.30;97.20;;;;;;5033071;28;19921;-62
2022/01/15 13:02:35;;;;;;;;;;;13.40;97.30;;;;;;5033425;28;19994;-65
2022/01/15 13:05:01;;;;;;;;;;;13.20;97.20;;;;;;5034472;28;20346;-66
2022/01/15 13:07:27;;;;;;;;;;;13.30;97.20;;;;;;5036744;28;20283;-66
2022/01/15 13:09:52;;;;;;;;;;;13.60;97.30;;;;;;5036635;28;19928;-65
2022/01/15 13:12:18;;;;;;;;;;;13.10;97.20;;;;;;5036944;28;19921;-66
2022/01/15 13:14:45;;;;;;;;;;;;;;;;;;5037415;28;20099;-67
2022/01/15 13:17:26;;;;;;;;;;;13.40;97.20;;;;;;5036809;28;19921;-66
2022/01/15 13:19:52;;;;;;;;;;;13.30;97.20;;;;;;5036717;28;20026;-66
2022/01/15 13:22:23;;;;;;;;;;;13.20;97.10;;;;;;5036685;28;19921;-61
2022/01/15 13:25:05;;;;;;;;;;;13.20;97.10;;;;;;5036416;28;20371;-66
2022/01/15 13:27:32;;;;;;;;;;;13.20;97.10;;;;;;5036082;28;20020;-66
2022/01/15 13:29:58;;;;;;;;;;;;;;;;;;5036616;28;19921;-66
2022/01/15 13:32:23;;;;;;;;;;;13.10;97.10;;;;;;5036726;28;19968;-61
2022/01/15 13:34:49;;;;;;;;;;;13.20;97.10;;;;;;5018699;28;19928;-62
2022/01/15 13:37:22;;;;;;;;;;;13.30;97.10;;;;;;5036984;28;19917;-61
2022/01/15 13:39:49;;;;;;;;;;;13.20;97.10;;;;;;5036022;28;19975;-66
2022/01/15 13:42:15;;;;;;;;;;;13.20;97.10;;;;;;5036333;28;19928;-60
2022/01/15 13:44:41;;;;;;;;;;;13.20;97.10;;;;;;5036308;28;19921;-66
2022/01/15 13:47:07;;;;;;;;;;;13.30;97.10;;;;;;5036304;28;19921;-65
2022/01/15 13:53:05;;;;;;;;;;;13.20;97.10;;;;;;5039522;28;20398;-66
2022/01/15 13:55:17;;;;;;;;;;;;;;;;;;4975214;28;19922;-60
2022/01/15 13:57:43;;;;;;;;;;;;;;;;;;4975586;28;20364;-63
2022/01/15 14:00:15;;;;;;;;;;;13.20;97.00;;;;;;4975015;28;19922;-66
2022/01/15 14:02:41;;;;;;;;;;;13.10;97.00;;;;;;4974867;28;20021;-65
2022/01/15 14:05:16;;;;;;;;;;;13.10;97.00;;;;;;4975296;28;20020;-66
2022/01/15 14:07:42;;;;;;;;;;;13.30;97.10;;;;;;4974822;28;19926;-64
2022/01/15 14:10:18;;;;;;;;;;;13.30;97.10;;;;;;4974726;28;20053;-66
2022/01/15 14:12:44;;;;;;;;;;;13.20;97.00;;;;;;4974788;28;19977;-66
2022/01/15 14:15:14;;;;;;;;;;;13.30;97.00;;;;;;4974611;28;19984;-65
2022/01/15 14:17:43;;;;;;;;;;;13.10;97.00;;;;;;4973609;28;20001;-66
2022/01/15 14:22:41;;;;;;;;;;;13.30;97.00;;;;;;4975512;28;20343;-65
2022/01/15 14:25:16;;;;;;;;;;;13.20;97.00;;;;;;4974491;28;19918;-66
2022/01/15 14:27:42;;;;;;;;;;;13.00;96.90;;;;;;4974184;28;19922;-62
2022/01/15 14:30:08;;;;;;;;;;;;;;;;;;4974368;28;19945;-66
2022/01/15 14:32:33;;;;;;;;;;;13.30;97.00;;;;;;5012376;28;19925;-65
2022/01/15 14:34:59;;;;;;;;;;;;;;;;;;5035023;28;19920;-65
2022/01/15 14:37:26;;;;;;;;;;;13.40;97.00;;;;;;5035304;28;19925;-60
2022/01/15 14:40:11;;;;;;;;;;;13.30;97.00;;;;;;5025567;28;19983;-60
2022/01/15 14:42:37;;;;;;;;;;;13.30;97.00;;;;;;5013203;28;19921;-66
2022/01/15 14:45:03;;;;;;;;;;;13.10;96.90;;;;;;5013320;28;20032;-62
2022/01/15 14:47:29;;;;;;;;;;;;;;;;;;5013024;28;20060;-67
2022/01/15 14:49:55;;;;;;;;;;;13.00;96.90;;;;;;5013005;28;19922;-66
2022/01/15 14:52:20;;;;;;;;;;;12.90;96.90;;;;;;5013112;28;19922;-66
2022/01/15 14:54:46;;;;;;;;;;;13.20;97.00;;;;;;5012913;28;19925;-66
2022/01/15 14:57:12;;;;;;;;;;;13.30;97.00;;;;;;5011964;28;19945;-66
2022/01/15 14:59:37;;;;;;;;;;;13.10;96.90;;;;;;5012740;28;19928;-68
2022/01/15 15:02:03;;;;;;;;;;;13.10;96.90;;;;;;5012806;28;19972;-62